Time;durP1;ratioP1;P1;durP2;ratioP2;P2;SDS_P1;SDS_P2;PMS_P1;PMS_P2;Temp;Humidity;BMP_temperature;BMP_pressure;BME280_temperature;BME280_humidity;BME280_pressure;Samples;Min_cycle;Max_cycle;Signal;HPM_P1;HPM_P2
2022/09/13 00:01:25;;;;;;;3.45;2.10;;;;;;;;;;5047461;28;20041;-64
2022/09/13 00:03:50;;;;;;;4.55;2.30;;;;;;;;;;5047207;28;20044;-64
2022/09/13 00:06:18;;;;;;;4.72;2.13;;;;;;;;;;5029964;28;20129;-64
2022/09/13 00:08:44;;;;;;;3.80;2.30;;;;;;;;;;5025223;28;20045;-64
2022/09/13 00:11:18;;;;;;;4.28;2.53;;;;;;;;;;5027868;28;20021;-64
2022/09/13 00:13:44;;;;;;;5.43;2.47;;;;;;;;;;5027536;28;20034;-64
2022/09/13 00:16:14;;;;;;;5.85;2.13;;;;;;;;;;5027549;28;20103;-64
2022/09/13 00:18:40;;;;;;;4.22;2.45;;;;;;;;;;5042842;28;20041;-64
2022/09/13 00:21:11;;;;;;;9.35;2.33;;;;;;;;;;5047258;28;20035;-64
2022/09/13 00:23:36;;;;;;;3.33;2.42;;;;;;;;;;5030467;28;20021;-64
2022/09/13 00:26:07;;;;;;;5.03;2.30;;;;;;;;;;5047780;28;20040;-64
2022/09/13 00:28:33;;;;;;;6.85;2.53;;;;;;;;;;5047553;28;20029;-64
2022/09/13 00:31:00;;;;;;;4.22;2.60;;;;;;;;;;5046404;28;20036;-65
2022/09/13 00:33:26;;;;;;;5.57;2.75;;;;;;;;;;5042701;28;20037;-64
2022/09/13 00:35:51;;;;;;;4.57;2.67;;;;;;;;;;5047435;28;20028;-64
2022/09/13 00:38:16;;;;;;;6.25;2.60;;;;;;;;;;5051443;28;20024;-65
2022/09/13 00:40:42;;;;;;;3.92;2.53;;;;;;;;;;5051991;28;20037;-64
2022/09/13 00:43:16;;;;;;;6.50;2.80;;;;;;;;;;5051311;28;20044;-64
2022/09/13 00:45:42;;;;;;;4.05;2.42;;;;;;;;;;5051509;28;20059;-64
2022/09/13 00:48:14;;;;;;;6.60;2.20;;;;;;;;;;5033723;28;20033;-64
2022/09/13 00:50:44;;;;;;;8.40;2.67;;;;;;;;;;5051225;28;20055;-64
2022/09/13 00:53:21;;;;;;;3.97;2.40;;;;;;;;;;5051295;28;20056;-64
2022/09/13 00:56:00;;;;;;;4.65;2.40;;;;;;;;;;5051407;28;20047;-64
2022/09/13 00:58:35;;;;;;;3.60;2.33;;;;;;;;;;5031666;28;20120;-64
2022/09/13 01:01:02;;;;;;;3.65;2.35;;;;;;;;;;5035028;28;20029;-64
2022/09/13 01:03:31;;;;;;;6.60;2.33;;;;;;;;;;5050528;28;20513;-64
2022/09/13 01:06:03;;;;;;;4.47;2.30;;;;;;;;;;5033532;28;20024;-64
2022/09/13 01:08:30;;;;;;;5.80;2.35;;;;;;;;;;5051492;28;20041;-65
2022/09/13 01:10:58;;;;;;;6.78;2.22;;;;;;;;;;5049221;28;20527;-65
2022/09/13 01:13:27;;;;;;;3.47;2.35;;;;;;;;;;5051439;28;20033;-64
2022/09/13 01:15:52;;;;;;;3.10;2.38;;;;;;;;;;5050530;28;20103;-64
2022/09/13 01:18:19;;;;;;;2.65;2.38;;;;;;;;;;5028808;28;20041;-65
2022/09/13 01:20:50;;;;;;;7.40;2.50;;;;;;;;;;5050780;28;20035;-64
2022/09/13 01:23:43;;;;;;;4.10;2.28;;;;;;;;;;5033084;28;20043;-64
2022/09/13 01:26:18;;;;;;;3.97;1.90;;;;;;;;;;5050893;28;20048;-64
2022/09/13 01:28:55;;;;;;;3.83;2.30;;;;;;;;;;5051085;28;20112;-64
2022/09/13 01:31:33;;;;;;;4.57;2.08;;;;;;;;;;5042780;28;20124;-64
2022/09/13 01:34:26;;;;;;;2.85;2.08;;;;;;;;;;5030924;28;20045;-65
2022/09/13 01:37:23;;;;;;;6.83;2.40;;;;;;;;;;5030470;28;20079;-64
2022/09/13 01:40:32;;;;;;;4.10;2.50;;;;;;;;;;5024124;28;20784;-64
2022/09/13 01:43:32;;;;;;;3.00;2.30;;;;;;;;;;4989872;28;20049;-64
2022/09/13 01:46:17;;;;;;;2.70;2.00;;;;;;;;;;5011740;28;20042;-64
2022/09/13 01:49:06;;;;;;;3.45;2.17;;;;;;;;;;5030014;28;20041;-64
2022/09/13 01:51:33;;;;;;;3.03;2.38;;;;;;;;;;5029982;28;20036;-64
2022/09/13 01:54:11;;;;;;;7.07;2.35;;;;;;;;;;5021956;28;20041;-64
2022/09/13 01:56:52;;;;;;;2.83;2.03;;;;;;;;;;5046599;28;20039;-64
2022/09/13 01:59:48;;;;;;;3.50;2.42;;;;;;;;;;5050285;28;20068;-65
2022/09/13 02:02:32;;;;;;;3.05;1.98;;;;;;;;;;5049755;28;20041;-64
2022/09/13 02:05:09;;;;;;;;;;;;;;;;;;5050334;28;20032;-64
2022/09/13 02:07:42;;;;;;;2.75;2.20;;;;;;;;;;5038093;28;20504;-64
2022/09/13 02:10:23;;;;;;;3.08;2.00;;;;;;;;;;5050022;28;20802;-64
2022/09/13 02:12:51;;;;;;;3.05;2.10;;;;;;;;;;5049194;28;20044;-64
2022/09/13 02:15:27;;;;;;;4.90;2.25;;;;;;;;;;5049828;28;20036;-64
2022/09/13 02:18:26;;;;;;;8.50;2.25;;;;;;;;;;5049064;28;20120;-64
2022/09/13 02:20:57;;;;;;;2.92;2.22;;;;;;;;;;5049368;28;20035;-64
2022/09/13 02:23:31;;;;;;;2.13;1.80;;;;;;;;;;5049072;28;20025;-64
2022/09/13 02:25:58;;;;;;;;;;;;;;;;;;5019942;28;20033;-64
2022/09/13 02:28:31;;;;;;;2.72;2.00;;;;;;;;;;5029441;28;19913;-64
2022/09/13 02:30:58;;;;;;;6.35;2.10;;;;;;;;;;5016368;28;20103;-65
2022/09/13 02:33:31;;;;;;;3.22;2.13;;;;;;;;;;5049597;28;20201;-65
2022/09/13 02:36:01;;;;;;;;;;;;;;;;;;5049964;28;20438;-64
2022/09/13 02:38:31;;;;;;;3.55;2.38;;;;;;;;;;5048878;28;20350;-65
2022/09/13 02:41:08;;;;;;;4.93;2.60;;;;;;;;;;5048991;28;20044;-64
2022/09/13 02:43:45;;;;;;;5.93;2.33;;;;;;;;;;5049476;28;20041;-64
2022/09/13 02:46:13;;;;;;;6.03;2.17;;;;;;;;;;5047941;28;20518;-64
2022/09/13 02:48:48;;;;;;;3.45;2.15;;;;;;;;;;5049579;28;20158;-65
2022/09/13 02:51:28;;;;;;;3.78;2.63;;;;;;;;;;5048941;28;20114;-64
2022/09/13 02:54:17;;;;;;;2.90;2.00;;;;;;;;;;5048615;28;20045;-64
2022/09/13 02:56:51;;;;;;;3.63;2.30;;;;;;;;;;5032158;28;20059;-64
2022/09/13 02:59:21;;;;;;;4.15;2.10;;;;;;;;;;5049572;28;20036;-64
2022/09/13 03:01:52;;;;;;;5.68;2.25;;;;;;;;;;5048463;28;20090;-64
2022/09/13 03:04:17;;;;;;;4.07;2.15;;;;;;;;;;5048924;28;20521;-64
2022/09/13 03:06:43;;;;;;;3.17;2.17;;;;;;;;;;5048184;28;20029;-64
2022/09/13 03:09:09;;;;;;;4.25;2.30;;;;;;;;;;5047955;28;20029;-64
2022/09/13 03:11:52;;;;;;;7.50;2.63;;;;;;;;;;5048223;28;20029;-64
2022/09/13 03:14:25;;;;;;;2.35;1.95;;;;;;;;;;5049189;28;20053;-64
2022/09/13 03:17:09;;;;;;;;;;;;;;;;;;5032424;28;20057;-65
2022/09/13 03:19:59;;;;;;;3.60;2.30;;;;;;;;;;5010292;28;19913;-64
2022/09/13 03:23:11;;;;;;;3.33;2.30;;;;;;;;;;5028404;28;20033;-65
2022/09/13 03:26:04;;;;;;;5.10;2.40;;;;;;;;;;5001752;28;20575;-64
2022/09/13 03:29:08;;;;;;;3.50;2.63;;;;;;;;;;5048267;28;20183;-64
2022/09/13 03:31:42;;;;;;;4.15;2.38;;;;;;;;;;5048241;28;20514;-65
2022/09/13 03:34:22;;;;;;;7.97;2.63;;;;;;;;;;5048224;28;20037;-65
2022/09/13 03:36:55;;;;;;;4.55;2.40;;;;;;;;;;5029726;28;20119;-64
2022/09/13 03:39:41;;;;;;;7.43;2.60;;;;;;;;;;5048157;28;20033;-65
2022/09/13 03:42:42;;;;;;;4.25;2.47;;;;;;;;;;5029831;28;20029;-64
2022/09/13 03:45:10;;;;;;;6.20;2.40;;;;;;;;;;5017163;28;20037;-64
2022/09/13 03:47:37;;;;;;;4.10;2.65;;;;;;;;;;5048172;28;20028;-64
2022/09/13 03:50:06;;;;;;;4.53;2.35;;;;;;;;;;5030519;28;20041;-64
2022/09/13 03:52:32;;;;;;;3.72;2.83;;;;;;;;;;5047781;28;20037;-64
2022/09/13 03:54:57;;;;;;;4.32;2.58;;;;;;;;;;5047009;28;20104;-64
2022/09/13 03:57:23;;;;;;;3.78;2.70;;;;;;;;;;5022180;28;20041;-64
2022/09/13 03:59:54;;;;;;;5.88;3.10;;;;;;;;;;5027562;28;20089;-64
2022/09/13 04:02:21;;;;;;;4.15;2.67;;;;;;;;;;5029463;28;20112;-64
2022/09/13 04:04:47;;;;;;;7.78;2.60;;;;;;;;;;5047372;28;20037;-64
2022/09/13 04:07:15;;;;;;;4.97;2.55;;;;;;;;;;5047709;28;20045;-64
2022/09/13 04:09:40;;;;;;;5.22;2.53;;;;;;;;;;5047659;28;20041;-64
2022/09/13 04:12:08;;;;;;;3.58;2.33;;;;;;;;;;5047436;28;20383;-65
2022/09/13 04:14:34;;;;;;;4.32;2.53;;;;;;;;;;5047680;28;20059;-64
2022/09/13 04:16:59;;;;;;;6.53;2.50;;;;;;;;;;5047301;28;20122;-64
2022/09/13 04:19:25;;;;;;;4.85;2.60;;;;;;;;;;5047803;28;20429;-64
2022/09/13 04:21:52;;;;;;;4.45;2.63;;;;;;;;;;5039204;28;20163;-64
2022/09/13 04:24:18;;;;;;;6.85;3.13;;;;;;;;;;5047631;28;20060;-65
2022/09/13 04:26:48;;;;;;;4.10;2.33;;;;;;;;;;5047654;28;20083;-65
2022/09/13 04:29:13;;;;;;;3.50;2.30;;;;;;;;;;5046832;28;20104;-64
2022/09/13 04:31:38;;;;;;;3.88;2.53;;;;;;;;;;5047552;28;20757;-64
2022/09/13 04:34:05;;;;;;;3.33;2.60;;;;;;;;;;5047462;28;20083;-65
2022/09/13 04:36:30;;;;;;;3.42;2.30;;;;;;;;;;5029677;28;20041;-64
2022/09/13 04:38:56;;;;;;;3.38;2.10;;;;;;;;;;5047209;28;20074;-64
2022/09/13 04:41:21;;;;;;;3.97;2.83;;;;;;;;;;5048099;28;20033;-64
2022/09/13 04:43:49;;;;;;;4.72;2.60;;;;;;;;;;5047325;28;20136;-65
2022/09/13 04:46:15;;;;;;;4.18;2.42;;;;;;;;;;5047679;28;20041;-64
2022/09/13 04:48:40;;;;;;;4.22;2.50;;;;;;;;;;5047409;28;20033;-64
2022/09/13 04:51:06;;;;;;;5.07;2.80;;;;;;;;;;5029336;28;20029;-65
2022/09/13 04:53:31;;;;;;;3.70;2.63;;;;;;;;;;5047518;28;20604;-65
2022/09/13 04:56:04;;;;;;;4.15;3.20;;;;;;;;;;5046290;28;20124;-64
2022/09/13 04:58:30;;;;;;;4.90;3.20;;;;;;;;;;5027577;28;20171;-64
2022/09/13 05:01:02;;;;;;;3.50;2.53;;;;;;;;;;5046418;28;20562;-64
2022/09/13 05:03:32;;;;;;;4.68;3.15;;;;;;;;;;5047642;28;20132;-65
2022/09/13 05:06:05;;;;;;;4.65;2.63;;;;;;;;;;5046936;28;20045;-65
2022/09/13 05:08:31;;;;;;;4.97;2.92;;;;;;;;;;5047862;28;20497;-64
2022/09/13 05:10:58;;;;;;;3.97;2.70;;;;;;;;;;5046953;28;20029;-64
2022/09/13 05:13:24;;;;;;;4.80;3.33;;;;;;;;;;5046979;28;20456;-64
2022/09/13 05:15:53;;;;;;;8.48;3.90;;;;;;;;;;5047230;28;20049;-64
2022/09/13 05:18:19;;;;;;;6.72;2.95;;;;;;;;;;5045962;28;20037;-64
2022/09/13 05:20:44;;;;;;;5.35;3.53;;;;;;;;;;5049647;28;20029;-64
2022/09/13 05:23:09;;;;;;;4.68;2.90;;;;;;;;;;5051586;28;20032;-64
2022/09/13 05:25:34;;;;;;;5.03;2.70;;;;;;;;;;5032626;28;20037;-64
2022/09/13 05:28:00;;;;;;;4.43;2.92;;;;;;;;;;5049801;28;20037;-64
2022/09/13 05:30:25;;;;;;;5.55;3.03;;;;;;;;;;5050374;28;20425;-64
2022/09/13 05:32:50;;;;;;;7.03;3.75;;;;;;;;;;5050106;28;20025;-64
2022/09/13 05:35:16;;;;;;;6.22;4.47;;;;;;;;;;5049121;28;20151;-65
2022/09/13 05:37:41;;;;;;;5.65;3.70;;;;;;;;;;5050341;28;20124;-64
2022/09/13 05:40:07;;;;;;;4.93;3.40;;;;;;;;;;5049902;28;20036;-64
2022/09/13 05:42:32;;;;;;;10.27;3.10;;;;;;;;;;5050907;28;20047;-64
2022/09/13 05:44:58;;;;;;;5.95;3.22;;;;;;;;;;5050028;28;20037;-64
2022/09/13 05:47:23;;;;;;;4.93;3.25;;;;;;;;;;5050575;28;20049;-64
2022/09/13 05:49:48;;;;;;;6.53;3.20;;;;;;;;;;5046538;28;20029;-64
2022/09/13 05:52:14;;;;;;;4.13;3.08;;;;;;;;;;5049707;28;20036;-64
2022/09/13 05:54:39;;;;;;;5.35;3.30;;;;;;;;;;5050520;28;20043;-64
2022/09/13 05:57:04;;;;;;;7.95;3.22;;;;;;;;;;5048227;28;20083;-64
2022/09/13 05:59:30;;;;;;;4.70;3.22;;;;;;;;;;5050386;28;20104;-64
2022/09/13 06:01:56;;;;;;;3.88;2.67;;;;;;;;;;5049979;28;20033;-64
2022/09/13 06:04:22;;;;;;;4.78;2.88;;;;;;;;;;5044109;28;20506;-64
2022/09/13 06:06:48;;;;;;;5.43;3.55;;;;;;;;;;5049626;28;20739;-64
2022/09/13 06:09:13;;;;;;;5.90;3.70;;;;;;;;;;5049843;28;20032;-65
2022/09/13 06:11:38;;;;;;;5.75;3.15;;;;;;;;;;5049459;28;20029;-64
2022/09/13 06:14:04;;;;;;;4.93;3.22;;;;;;;;;;5050529;28;20511;-64
2022/09/13 06:16:29;;;;;;;5.65;2.80;;;;;;;;;;5049007;28;20499;-64
2022/09/13 06:18:54;;;;;;;4.53;3.00;;;;;;;;;;5049766;28;20037;-65
2022/09/13 06:21:21;;;;;;;5.82;3.42;;;;;;;;;;5047552;28;20043;-64
2022/09/13 06:23:49;;;;;;;5.05;3.20;;;;;;;;;;5029003;28;20530;-64
2022/09/13 06:26:18;;;;;;;5.35;3.28;;;;;;;;;;5026495;28;20021;-64
2022/09/13 06:28:50;;;;;;;5.28;3.13;;;;;;;;;;5049508;28;20119;-64
2022/09/13 06:31:17;;;;;;;4.80;3.20;;;;;;;;;;5048704;28;20025;-64
2022/09/13 06:33:43;;;;;;;6.00;2.80;;;;;;;;;;5049302;28;20043;-64
2022/09/13 06:36:13;;;;;;;8.07;3.22;;;;;;;;;;5046785;28;20029;-64
2022/09/13 06:38:39;;;;;;;7.15;2.70;;;;;;;;;;5049015;28;20489;-64
2022/09/13 06:41:13;;;;;;;4.78;3.05;;;;;;;;;;5049767;28;20074;-64
2022/09/13 06:43:39;;;;;;;5.18;3.05;;;;;;;;;;5048377;28;20041;-64
2022/09/13 06:46:08;;;;;;;4.35;2.95;;;;;;;;;;5047714;28;20541;-64
2022/09/13 06:48:35;;;;;;;6.63;3.10;;;;;;;;;;5047867;28;20490;-65
2022/09/13 06:51:03;;;;;;;8.40;3.50;;;;;;;;;;5048320;28;20029;-65
2022/09/13 06:53:29;;;;;;;4.35;3.58;;;;;;;;;;5018289;28;20025;-65
2022/09/13 06:56:01;;;;;;;4.38;3.13;;;;;;;;;;5039944;28;20032;-65
2022/09/13 06:58:28;;;;;;;6.53;3.45;;;;;;;;;;5028455;28;20650;-65
2022/09/13 07:00:54;;;;;;;7.85;3.33;;;;;;;;;;5027624;28;20037;-65
2022/09/13 07:03:19;;;;;;;3.95;3.42;;;;;;;;;;5047519;28;20041;-65
2022/09/13 07:05:44;;;;;;;4.70;2.88;;;;;;;;;;5048879;28;20075;-65
2022/09/13 07:08:10;;;;;;;7.43;3.40;;;;;;;;;;5035796;28;20087;-65
2022/09/13 07:10:35;;;;;;;7.28;2.78;;;;;;;;;;5032124;28;20033;-65
2022/09/13 07:13:00;;;;;;;6.82;2.97;;;;;;;;;;5028641;28;20537;-65
2022/09/13 07:15:25;;;;;;;7.85;3.00;;;;;;;;;;5037122;28;20044;-65
2022/09/13 07:17:51;;;;;;;4.93;3.08;;;;;;;;;;5028093;28;20144;-64
2022/09/13 07:20:16;;;;;;;4.80;2.75;;;;;;;;;;5039348;28;20025;-65
2022/09/13 07:22:41;;;;;;;4.15;2.67;;;;;;;;;;5039375;28;20037;-65
2022/09/13 07:25:07;;;;;;;8.60;2.67;;;;;;;;;;5048186;28;20037;-65
2022/09/13 07:27:32;;;;;;;5.82;2.75;;;;;;;;;;5047113;28;20037;-64
2022/09/13 07:29:58;;;;;;;5.47;2.83;;;;;;;;;;5037128;28;20083;-65
2022/09/13 07:32:23;;;;;;;11.43;4.38;;;;;;;;;;5027932;28;20026;-65
2022/09/13 07:34:48;;;;;;;5.15;3.20;;;;;;;;;;5027419;28;20344;-65
2022/09/13 07:37:13;;;;;;;5.03;3.13;;;;;;;;;;5027754;28;20120;-65
2022/09/13 07:39:39;;;;;;;6.95;3.50;;;;;;;;;;5009055;28;20037;-66
2022/09/13 07:42:04;;;;;;;4.50;3.40;;;;;;;;;;5034085;28;20055;-65
2022/09/13 07:44:29;;;;;;;3.28;2.65;;;;;;;;;;5038045;28;20108;-65
2022/09/13 07:46:55;;;;;;;4.40;2.95;;;;;;;;;;5028129;28;20037;-65
2022/09/13 07:49:20;;;;;;;4.50;2.60;;;;;;;;;;5027367;28;20041;-65
2022/09/13 07:51:45;;;;;;;4.10;2.80;;;;;;;;;;5027334;28;20530;-65
2022/09/13 07:54:14;;;;;;;4.55;2.50;;;;;;;;;;5038224;28;20057;-65
2022/09/13 07:56:40;;;;;;;4.80;2.80;;;;;;;;;;5034413;28;20806;-65
2022/09/13 07:59:10;;;;;;;8.25;2.85;;;;;;;;;;5042651;28;20091;-65
2022/09/13 08:01:38;;;;;;;4.22;2.72;;;;;;;;;;5035993;28;20037;-65
2022/09/13 08:04:08;;;;;;;5.47;3.05;;;;;;;;;;5029789;28;20131;-65
2022/09/13 08:06:36;;;;;;;5.10;3.28;;;;;;;;;;5046110;28;20025;-65
2022/09/13 08:09:02;;;;;;;5.57;3.10;;;;;;;;;;5046748;28;20057;-64
2022/09/13 08:11:29;;;;;;;5.55;2.75;;;;;;;;;;5045269;28;20031;-65
2022/09/13 08:13:54;;;;;;;4.13;2.65;;;;;;;;;;5029721;28;20049;-65
2022/09/13 08:16:22;;;;;;;12.23;3.05;;;;;;;;;;5046969;28;20100;-65
2022/09/13 08:18:53;;;;;;;5.95;3.22;;;;;;;;;;5046309;28;20132;-65
2022/09/13 08:21:19;;;;;;;6.75;3.10;;;;;;;;;;5012706;28;20083;-65
2022/09/13 08:23:45;;;;;;;78.75;7.38;;;;;;;;;;5046508;28;20099;-64
2022/09/13 08:26:11;;;;;;;13.55;4.15;;;;;;;;;;5041197;28;20648;-65
2022/09/13 08:28:39;;;;;;;6.72;2.95;;;;;;;;;;5036702;28;20105;-65
2022/09/13 08:31:19;;;;;;;5.18;3.17;;;;;;;;;;5025614;28;20057;-65
2022/09/13 08:33:47;;;;;;;7.80;2.97;;;;;;;;;;5027198;28;20026;-65
2022/09/13 08:36:13;;;;;;;12.30;3.25;;;;;;;;;;5027976;28;20080;-65
2022/09/13 08:38:38;;;;;;;8.88;3.25;;;;;;;;;;5044778;28;20029;-65
2022/09/13 08:41:24;;;;;;;4.03;2.90;;;;;;;;;;5046835;28;20041;-65
2022/09/13 08:43:56;;;;;;;7.43;2.90;;;;;;;;;;5045962;28;20045;-65
2022/09/13 08:46:45;;;;;;;8.25;3.83;;;;;;;;;;5046859;28;20029;-65
2022/09/13 08:49:17;;;;;;;7.38;3.35;;;;;;;;;;5046418;28;20437;-65
2022/09/13 08:51:52;;;;;;;9.55;3.80;;;;;;;;;;5047087;28;20037;-65
2022/09/13 08:54:19;;;;;;;6.72;3.80;;;;;;;;;;5047208;28;20040;-65
2022/09/13 08:57:27;;;;;;;6.25;3.50;;;;;;;;;;5050472;28;20017;-65
2022/09/13 09:00:37;;;;;;;9.25;4.18;;;;;;;;;;5001585;28;20037;-65
2022/09/13 09:03:08;;;;;;;7.53;3.45;;;;;;;;;;4971842;28;20057;-65
2022/09/13 09:05:46;;;;;;;11.30;3.60;;;;;;;;;;5051402;28;20029;-65
2022/09/13 09:08:21;;;;;;;9.77;3.50;;;;;;;;;;5046571;28;20053;-65
2022/09/13 09:10:52;;;;;;;12.75;4.00;;;;;;;;;;5050732;28;20032;-65
2022/09/13 09:13:20;;;;;;;8.55;3.50;;;;;;;;;;5050010;28;20095;-65
2022/09/13 09:15:49;;;;;;;8.75;3.22;;;;;;;;;;5050307;28;20098;-65
2022/09/13 09:18:28;;;;;;;10.82;3.05;;;;;;;;;;5033011;28;20126;-64
2022/09/13 09:20:55;;;;;;;8.07;3.65;;;;;;;;;;5030797;28;20486;-65
2022/09/13 09:23:23;;;;;;;6.70;3.05;;;;;;;;;;5048617;28;20025;-65
2022/09/13 09:26:14;;;;;;;7.35;2.78;;;;;;;;;;5038096;28;20511;-65
2022/09/13 09:28:40;;;;;;;8.35;3.05;;;;;;;;;;5034604;28;20510;-65
2022/09/13 09:31:23;;;;;;;6.13;3.33;;;;;;;;;;5035541;28;20036;-65
2022/09/13 09:34:41;;;;;;;5.65;3.10;;;;;;;;;;5039570;28;20125;-65
2022/09/13 09:37:15;;;;;;;6.95;3.05;;;;;;;;;;4967224;28;20038;-65
2022/09/13 09:39:41;;;;;;;7.65;3.50;;;;;;;;;;5024563;28;20041;-65
2022/09/13 09:42:13;;;;;;;83.10;8.35;;;;;;;;;;5040020;28;20045;-65
2022/09/13 09:44:39;;;;;;;7.28;3.53;;;;;;;;;;5047542;28;20029;-65
2022/09/13 09:47:13;;;;;;;5.97;3.55;;;;;;;;;;5046416;28;20083;-65
2022/09/13 09:52:42;;;;;;;8.18;3.30;;;;;;;;;;5033673;28;20087;-65
2022/09/13 09:55:20;;;;;;;5.63;3.50;;;;;;;;;;5029899;28;20029;-65
2022/09/13 09:58:15;;;;;;;5.05;3.13;;;;;;;;;;5045769;28;20517;-65
2022/09/13 10:00:52;;;;;;;3.08;2.50;;;;;;;;;;5046807;28;20049;-65
2022/09/13 10:03:23;;;;;;;5.65;2.60;;;;;;;;;;5049675;28;20045;-65
2022/09/13 10:05:48;;;;;;;3.63;2.50;;;;;;;;;;5048639;28;20028;-65
2022/09/13 10:08:27;;;;;;;3.60;2.40;;;;;;;;;;5049528;28;20024;-65
2022/09/13 10:10:53;;;;;;;3.00;2.33;;;;;;;;;;5047470;28;20080;-65
2022/09/13 10:13:21;;;;;;;4.82;3.03;;;;;;;;;;5040116;28;20033;-65
2022/09/13 10:15:57;;;;;;;7.05;2.70;;;;;;;;;;5048895;28;20037;-65
2022/09/13 10:18:28;;;;;;;4.13;2.40;;;;;;;;;;5048823;28;20124;-65
2022/09/13 10:21:06;;;;;;;3.95;3.00;;;;;;;;;;5049347;28;20030;-65
2022/09/13 10:23:35;;;;;;;2.80;2.33;;;;;;;;;;5049511;28;20118;-65
2022/09/13 10:26:05;;;;;;;4.03;2.70;;;;;;;;;;5033562;28;20029;-64
2022/09/13 10:28:35;;;;;;;6.10;2.72;;;;;;;;;;5029037;28;20038;-65
2022/09/13 10:31:05;;;;;;;3.60;2.80;;;;;;;;;;5028761;28;20422;-65
2022/09/13 10:33:30;;;;;;;6.63;3.20;;;;;;;;;;5043477;28;20047;-65
2022/09/13 10:35:59;;;;;;;4.88;3.40;;;;;;;;;;5044958;28;20029;-65
2022/09/13 10:39:02;;;;;;;5.90;3.70;;;;;;;;;;5011252;28;20512;-65
2022/09/13 10:41:34;;;;;;;5.07;3.40;;;;;;;;;;5046135;28;20132;-65
2022/09/13 10:44:02;;;;;;;10.65;3.45;;;;;;;;;;5031729;28;20128;-65
2022/09/13 10:46:35;;;;;;;5.93;3.60;;;;;;;;;;5031220;28;20076;-65
2022/09/13 10:49:00;;;;;;;6.70;3.70;;;;;;;;;;5016922;28;20064;-64
2022/09/13 10:51:25;;;;;;;6.72;3.58;;;;;;;;;;5032526;28;20414;-65
2022/09/13 10:54:06;;;;;;;8.57;3.55;;;;;;;;;;5036633;28;20612;-65
2022/09/13 10:56:32;;;;;;;5.43;3.67;;;;;;;;;;5045165;28;20021;-65
2022/09/13 10:59:14;;;;;;;4.90;3.60;;;;;;;;;;5048888;28;20032;-65
2022/09/13 11:01:55;;;;;;;6.07;3.40;;;;;;;;;;5031110;28;20045;-65
2022/09/13 11:04:26;;;;;;;5.80;3.45;;;;;;;;;;5038269;28;20096;-65
2022/09/13 11:07:06;;;;;;;6.50;3.67;;;;;;;;;;5028193;28;20091;-65
2022/09/13 11:09:54;;;;;;;9.52;3.90;;;;;;;;;;5029020;28;20087;-65
2022/09/13 11:12:44;;;;;;;6.35;3.75;;;;;;;;;;5028850;28;20115;-65
2022/09/13 11:15:27;;;;;;;5.55;3.60;;;;;;;;;;5028158;28;20112;-65
2022/09/13 11:18:37;;;;;;;9.18;3.80;;;;;;;;;;5026695;28;20065;-65
2022/09/13 11:21:12;;;;;;;7.10;3.50;;;;;;;;;;5017842;28;20113;-65
2022/09/13 11:24:02;;;;;;;7.47;3.38;;;;;;;;;;5028552;28;20087;-65
2022/09/13 11:26:38;;;;;;;7.45;4.25;;;;;;;;;;5025543;28;20090;-65
2022/09/13 11:29:11;;;;;;;4.63;3.97;;;;;;;;;;5043260;28;20033;-65
2022/09/13 11:31:59;;;;;;;5.25;3.72;;;;;;;;;;5046876;28;20044;-65
2022/09/13 11:34:40;;;;;;;6.85;4.45;;;;;;;;;;5047773;28;20464;-65
2022/09/13 11:37:23;;;;;;;6.13;4.07;;;;;;;;;;5038679;28;20036;-65
2022/09/13 11:40:01;;;;;;;6.70;4.35;;;;;;;;;;5042549;28;20041;-65
2022/09/13 11:42:45;;;;;;;10.50;4.38;;;;;;;;;;5046689;28;20036;-65
2022/09/13 11:45:17;;;;;;;7.18;3.90;;;;;;;;;;5047906;28;20037;-65
2022/09/13 11:48:06;;;;;;;7.20;4.43;;;;;;;;;;5031192;28;20035;-65
2022/09/13 11:50:45;;;;;;;7.72;3.97;;;;;;;;;;5028653;28;20021;-65
2022/09/13 11:53:32;;;;;;;8.68;4.57;;;;;;;;;;5019171;28;20052;-65
2022/09/13 11:56:09;;;;;;;5.95;3.92;;;;;;;;;;5026862;28;20186;-65
2022/09/13 11:58:41;;;;;;;7.13;3.97;;;;;;;;;;5047204;28;20070;-65
2022/09/13 12:01:10;;;;;;;7.63;4.45;;;;;;;;;;5046691;28;20064;-65
2022/09/13 12:03:49;;;;;;;6.78;3.67;;;;;;;;;;5047142;28;20102;-65
2022/09/13 12:06:23;;;;;;;6.47;4.05;;;;;;;;;;5047428;28;20032;-65
2022/09/13 12:08:52;;;;;;;9.50;4.05;;;;;;;;;;5046819;28;20524;-65
2022/09/13 12:11:26;;;;;;;9.40;4.00;;;;;;;;;;5047546;28;20075;-65
2022/09/13 12:13:55;;;;;;;8.48;3.97;;;;;;;;;;5044049;28;20076;-65
2022/09/13 12:16:35;;;;;;;6.93;3.95;;;;;;;;;;5046847;28;20118;-65
2022/09/13 12:19:07;;;;;;;8.95;3.97;;;;;;;;;;5028424;28;20124;-65
2022/09/13 12:21:38;;;;;;;7.50;3.70;;;;;;;;;;5047175;28;20068;-65
2022/09/13 12:24:15;;;;;;;9.18;4.53;;;;;;;;;;5046959;28;20498;-65
2022/09/13 12:26:57;;;;;;;5.45;4.00;;;;;;;;;;5046535;28;20032;-65
2022/09/13 12:29:27;;;;;;;7.78;3.97;;;;;;;;;;5049349;28;20052;-65
2022/09/13 12:31:57;;;;;;;8.05;4.07;;;;;;;;;;5050993;28;20063;-65
2022/09/13 12:34:31;;;;;;;7.35;3.70;;;;;;;;;;5046556;28;20067;-65
2022/09/13 12:37:21;;;;;;;8.00;4.05;;;;;;;;;;5049490;28;20029;-65
2022/09/13 12:40:09;;;;;;;11.55;3.95;;;;;;;;;;5050657;28;20120;-64
2022/09/13 12:42:56;;;;;;;5.90;3.63;;;;;;;;;;5050344;28;20033;-65
2022/09/13 12:45:21;;;;;;;9.55;3.83;;;;;;;;;;5050517;28;20041;-65
2022/09/13 12:48:40;;;;;;;8.02;4.15;;;;;;;;;;5050880;28;20108;-65
2022/09/13 12:51:13;;;;;;;6.18;4.03;;;;;;;;;;4963491;28;20516;-65
2022/09/13 12:54:04;;;;;;;10.20;4.27;;;;;;;;;;5047783;28;20048;-65
2022/09/13 12:56:55;;;;;;;11.23;4.95;;;;;;;;;;5033107;28;20271;-65
2022/09/13 12:59:58;;;;;;;10.32;5.55;;;;;;;;;;5050332;28;20041;-65
2022/09/13 13:02:29;;;;;;;8.25;5.10;;;;;;;;;;4930512;29;20071;-65
2022/09/13 13:04:59;;;;;;;8.05;5.45;;;;;;;;;;5030198;28;20041;-65
2022/09/13 13:07:26;;;;;;;12.43;5.57;;;;;;;;;;5051031;28;20119;-65
2022/09/13 13:09:54;;;;;;;9.30;5.35;;;;;;;;;;5050239;28;20037;-65
2022/09/13 13:12:36;;;;;;;7.88;5.03;;;;;;;;;;5035828;28;20079;-65
2022/09/13 13:15:11;;;;;;;8.88;5.28;;;;;;;;;;5030429;28;20105;-65
2022/09/13 13:17:38;;;;;;;9.25;5.07;;;;;;;;;;5031234;28;20037;-65
2022/09/13 13:20:41;;;;;;;9.40;5.40;;;;;;;;;;5030037;28;20085;-65
2022/09/13 13:23:27;;;;;;;13.02;7.57;;;;;;;;;;5033710;28;20061;-65
2022/09/13 13:26:01;;;;;;;10.20;6.55;;;;;;;;;;5046097;28;20040;-65
2022/09/13 13:28:42;;;;;;;12.07;6.25;;;;;;;;;;5050398;28;20036;-65
2022/09/13 13:31:30;;;;;;;14.93;6.65;;;;;;;;;;5050001;28;20116;-65
2022/09/13 13:34:00;;;;;;;16.17;7.68;;;;;;;;;;5037568;28;20029;-65
2022/09/13 13:36:28;;;;;;;12.68;7.60;;;;;;;;;;5030533;28;20513;-65
2022/09/13 13:38:55;;;;;;;15.05;7.78;;;;;;;;;;5029828;28;20113;-65
2022/09/13 13:41:32;;;;;;;13.18;7.32;;;;;;;;;;5029491;28;20128;-65
2022/09/13 13:43:59;;;;;;;15.10;6.70;;;;;;;;;;5012299;28;20483;-64
2022/09/13 13:46:30;;;;;;;15.00;6.53;;;;;;;;;;5029201;28;20514;-65
2022/09/13 13:49:30;;;;;;;10.35;6.15;;;;;;;;;;5046941;28;20036;-63
2022/09/13 13:52:22;;;;;;;13.45;7.97;;;;;;;;;;5028906;28;20038;-67
2022/09/13 13:54:53;;;;;;;10.63;6.80;;;;;;;;;;4992240;28;20049;-66
2022/09/13 13:57:34;;;;;;;13.07;6.70;;;;;;;;;;5042031;28;20231;-66
2022/09/13 14:00:14;;;;;;;19.40;6.65;;;;;;;;;;5050062;28;20044;-66
2022/09/13 14:02:48;;;;;;;11.95;6.45;;;;;;;;;;5050814;28;20406;-66
2022/09/13 14:05:32;;;;;;;11.63;6.72;;;;;;;;;;5050371;28;20044;-66
2022/09/13 14:08:36;;;;;;;12.63;6.28;;;;;;;;;;5028901;28;20038;-72
2022/09/13 14:11:09;;;;;;;11.52;5.63;;;;;;;;;;4978668;28;20503;-67
2022/09/13 14:14:01;;;;;;;13.15;6.40;;;;;;;;;;5029424;28;20033;-71
2022/09/13 14:16:41;;;;;;;9.65;6.00;;;;;;;;;;4990770;28;20056;-66
2022/09/13 14:19:30;;;;;;;9.75;5.90;;;;;;;;;;5021781;28;20091;-66
2022/09/13 14:22:18;;;;;;;8.23;5.22;;;;;;;;;;5048804;28;20561;-70
2022/09/13 14:25:19;;;;;;;7.60;4.90;;;;;;;;;;5049240;28;20025;-66
2022/09/13 14:27:46;;;;;;;9.52;5.13;;;;;;;;;;5044039;28;20048;-66
2022/09/13 14:30:17;;;;;;;9.60;5.63;;;;;;;;;;5048346;28;20033;-68
2022/09/13 14:32:45;;;;;;;8.73;6.07;;;;;;;;;;5048851;28;20039;-64
2022/09/13 14:35:29;;;;;;;9.95;5.75;;;;;;;;;;5049239;28;20412;-63
2022/09/13 14:38:08;;;;;;;8.27;5.00;;;;;;;;;;5046907;28;20032;-66
2022/09/13 14:40:33;;;;;;;8.25;5.10;;;;;;;;;;5030816;28;20037;-63
2022/09/13 14:42:58;;;;;;;7.53;4.28;;;;;;;;;;5048240;28;20032;-69
2022/09/13 14:45:35;;;;;;;6.38;4.32;;;;;;;;;;5030949;28;20414;-63
2022/09/13 14:48:11;;;;;;;6.95;3.88;;;;;;;;;;5048434;28;20132;-63
2022/09/13 14:51:00;;;;;;;7.00;4.32;;;;;;;;;;5048613;28;20021;-63
2022/09/13 14:53:29;;;;;;;6.18;4.20;;;;;;;;;;5044276;28;20140;-64
2022/09/13 14:56:02;;;;;;;4.35;3.30;;;;;;;;;;5043488;28;20126;-63
2022/09/13 14:58:53;;;;;;;6.22;3.95;;;;;;;;;;5028476;28;20092;-64
2022/09/13 15:01:25;;;;;;;7.65;4.88;;;;;;;;;;5027457;28;20562;-63
2022/09/13 15:03:54;;;;;;;6.03;3.43;;;;;;;;;;5028240;28;20060;-64
2022/09/13 15:06:25;;;;;;;7.13;4.00;;;;;;;;;;5028161;28;20033;-63
2022/09/13 15:08:53;;;;;;;6.95;3.95;;;;;;;;;;5027237;28;20051;-63
2022/09/13 15:11:29;;;;;;;5.75;4.05;;;;;;;;;;5039448;28;20490;-63
2022/09/13 15:14:15;;;;;;;6.13;4.10;;;;;;;;;;5032358;28;20033;-63
2022/09/13 15:17:00;;;;;;;6.65;3.53;;;;;;;;;;5038626;28;20049;-63
2022/09/13 15:19:38;;;;;;;4.97;3.58;;;;;;;;;;5038280;28;20056;-63
2022/09/13 15:22:14;;;;;;;5.70;3.63;;;;;;;;;;5026778;28;20041;-63
2022/09/13 15:24:46;;;;;;;6.15;3.75;;;;;;;;;;5036310;28;20047;-63